sensor_id;sensor_type;location;lat;lon;timestamp;pressure;altitude;pressure_sealevel;temperature;humidity
41044;BME280;51680;49.806;18.774;2023-02-20T00:00:39;98056.13;;;4.97;74.67
41044;BME280;51680;49.806;18.774;2023-02-20T00:03:41;98050.78;;;5.03;74.34
41044;BME280;51680;49.806;18.774;2023-02-20T00:06:43;98059.50;;;5.01;73.94
41044;BME280;51680;49.806;18.774;2023-02-20T00:09:46;98052.06;;;4.90;74.04
41044;BME280;51680;49.806;18.774;2023-02-20T00:12:47;98048.72;;;4.87;74.39
41044;BME280;51680;49.806;18.774;2023-02-20T00:15:49;98042.84;;;4.82;74.29
41044;BME280;51680;49.806;18.774;2023-02-20T00:18:51;98041.91;;;4.84;74.79
41044;BME280;51680;49.806;18.774;2023-02-20T00:21:53;98039.22;;;4.87;74.38
41044;BME280;51680;49.806;18.774;2023-02-20T00:24:56;98019.34;;;4.89;74.52
41044;BME280;51680;49.806;18.774;2023-02-20T00:27:57;98017.72;;;4.85;74.36
41044;BME280;51680;49.806;18.774;2023-02-20T00:30:59;98022.28;;;4.77;73.97
41044;BME280;51680;49.806;18.774;2023-02-20T00:34:01;98035.22;;;4.77;73.83
41044;BME280;51680;49.806;18.774;2023-02-20T00:37:03;98026.78;;;4.71;73.73
41044;BME280;51680;49.806;18.774;2023-02-20T00:40:07;98024.13;;;4.74;73.89
41044;BME280;51680;49.806;18.774;2023-02-20T00:43:28;98024.88;;;4.77;74.33
41044;BME280;51680;49.806;18.774;2023-02-20T00:46:31;98034.06;;;4.86;74.33
41044;BME280;51680;49.806;18.774;2023-02-20T00:49:32;98036.53;;;4.90;74.09
41044;BME280;51680;49.806;18.774;2023-02-20T00:52:47;98040.19;;;4.83;73.29
41044;BME280;51680;49.806;18.774;2023-02-20T00:55:50;98032.50;;;4.82;73.46
41044;BME280;51680;49.806;18.774;2023-02-20T00:58:52;98024.88;;;4.77;74.10
41044;BME280;51680;49.806;18.774;2023-02-20T01:01:54;98024.88;;;4.77;73.65
41044;BME280;51680;49.806;18.774;2023-02-20T01:04:56;98029.91;;;4.82;73.56
41044;BME280;51680;49.806;18.774;2023-02-20T01:07:57;98034.84;;;4.89;73.59
41044;BME280;51680;49.806;18.774;2023-02-20T01:11:01;98038.22;;;4.91;73.62
41044;BME280;51680;49.806;18.774;2023-02-20T01:14:03;98038.22;;;4.91;73.49
41044;BME280;51680;49.806;18.774;2023-02-20T01:17:05;98039.25;;;4.86;73.41
41044;BME280;51680;49.806;18.774;2023-02-20T01:20:07;98036.91;;;4.78;73.85
41044;BME280;51680;49.806;18.774;2023-02-20T01:23:09;98032.53;;;4.80;73.72
41044;BME280;51680;49.806;18.774;2023-02-20T01:26:12;98018.75;;;4.80;73.63
41044;BME280;51680;49.806;18.774;2023-02-20T01:29:15;98023.09;;;4.79;73.56
41044;BME280;51680;49.806;18.774;2023-02-20T01:32:17;98019.69;;;4.77;73.68
41044;BME280;51680;49.806;18.774;2023-02-20T01:35:19;98011.03;;;4.78;73.10
41044;BME280;51680;49.806;18.774;2023-02-20T01:38:40;97992.13;;;4.78;73.20
41044;BME280;51680;49.806;18.774;2023-02-20T01:41:43;97995.63;;;4.75;73.46
41044;BME280;51680;49.806;18.774;2023-02-20T01:44:48;97987.94;;;4.74;72.95
41044;BME280;51680;49.806;18.774;2023-02-20T01:47:51;97992.41;;;4.69;72.48
41044;BME280;51680;49.806;18.774;2023-02-20T01:50:56;97992.53;;;4.64;72.13
41044;BME280;51680;49.806;18.774;2023-02-20T01:54:00;97980.50;;;4.63;72.47
41044;BME280;51680;49.806;18.774;2023-02-20T01:57:05;97984.91;;;4.60;72.38
41044;BME280;51680;49.806;18.774;2023-02-20T02:00:13;97982.50;;;4.55;72.37
41044;BME280;51680;49.806;18.774;2023-02-20T02:03:18;97985.81;;;4.59;72.89
41044;BME280;51680;49.806;18.774;2023-02-20T02:06:23;97969.22;;;4.66;72.63
41044;BME280;51680;49.806;18.774;2023-02-20T02:09:32;97964.94;;;4.65;72.05
41044;BME280;51680;49.806;18.774;2023-02-20T02:12:39;97950.22;;;4.67;71.72
41044;BME280;51680;49.806;18.774;2023-02-20T02:15:41;97935.75;;;4.61;71.26
41044;BME280;51680;49.806;18.774;2023-02-20T02:18:49;97936.03;;;4.52;71.62
41044;BME280;51680;49.806;18.774;2023-02-20T02:25:44;97922.47;;;4.46;72.46
41044;BME280;51680;49.806;18.774;2023-02-20T02:29:20;97920.63;;;4.49;70.11
41044;BME280;51680;49.806;18.774;2023-02-20T02:32:46;97919.03;;;4.45;70.13
41044;BME280;51680;49.806;18.774;2023-02-20T02:36:12;97922.44;;;4.47;70.69
41044;BME280;51680;49.806;18.774;2023-02-20T02:39:23;97918.75;;;4.54;71.81
41044;BME280;51680;49.806;18.774;2023-02-20T02:42:28;97912.53;;;4.60;71.91
41044;BME280;51680;49.806;18.774;2023-02-20T02:45:39;97909.78;;;4.64;71.33
41044;BME280;51680;49.806;18.774;2023-02-20T02:48:46;97912.50;;;4.61;71.57
41044;BME280;51680;49.806;18.774;2023-02-20T02:51:53;97897.06;;;4.58;71.30
41044;BME280;51680;49.806;18.774;2023-02-20T02:54:55;97881.56;;;4.58;70.09
41044;BME280;51680;49.806;18.774;2023-02-20T02:57:57;97883.38;;;4.56;70.37
41044;BME280;51680;49.806;18.774;2023-02-20T03:01:00;97881.59;;;4.57;70.68
41044;BME280;51680;49.806;18.774;2023-02-20T03:04:04;97878.03;;;4.61;70.89
41044;BME280;51680;49.806;18.774;2023-02-20T03:07:29;97891.00;;;4.59;70.58
41044;BME280;51680;49.806;18.774;2023-02-20T03:10:32;97889.09;;;4.64;70.67
41044;BME280;51680;49.806;18.774;2023-02-20T03:13:38;97894.50;;;4.58;70.75
41044;BME280;51680;49.806;18.774;2023-02-20T03:17:05;97884.44;;;4.49;69.91
41044;BME280;51680;49.806;18.774;2023-02-20T03:20:14;97891.22;;;4.53;70.96
41044;BME280;51680;49.806;18.774;2023-02-20T03:23:21;97892.81;;;4.57;70.07
41044;BME280;51680;49.806;18.774;2023-02-20T03:26:29;97887.59;;;4.59;70.46
41044;BME280;51680;49.806;18.774;2023-02-20T03:29:35;97886.69;;;4.60;70.16
41044;BME280;51680;49.806;18.774;2023-02-20T03:32:40;97880.25;;;4.45;69.84
41044;BME280;51680;49.806;18.774;2023-02-20T03:36:04;97864.84;;;4.44;69.82
41044;BME280;51680;49.806;18.774;2023-02-20T03:39:29;97850.34;;;4.38;70.15
41044;BME280;51680;49.806;18.774;2023-02-20T03:42:53;97850.50;;;4.34;70.34
41044;BME280;51680;49.806;18.774;2023-02-20T03:46:19;97844.81;;;4.23;70.87
41044;BME280;51680;49.806;18.774;2023-02-20T03:49:27;97851.72;;;4.24;71.08
41044;BME280;51680;49.806;18.774;2023-02-20T03:52:31;97867.25;;;4.22;70.26
41044;BME280;51680;49.806;18.774;2023-02-20T03:55:34;97851.63;;;4.25;70.46
41044;BME280;51680;49.806;18.774;2023-02-20T03:58:43;97854.22;;;4.25;70.20
41044;BME280;51680;49.806;18.774;2023-02-20T04:01:50;97854.34;;;4.22;70.08
41044;BME280;51680;49.806;18.774;2023-02-20T04:04:56;97854.91;;;4.30;70.35
41044;BME280;51680;49.806;18.774;2023-02-20T04:08:04;97857.50;;;4.30;69.72
41044;BME280;51680;49.806;18.774;2023-02-20T04:11:16;97865.13;;;4.35;69.11
41044;BME280;51680;49.806;18.774;2023-02-20T04:14:21;97865.84;;;4.38;69.29
41044;BME280;51680;49.806;18.774;2023-02-20T04:17:29;97867.66;;;4.36;68.87
41044;BME280;51680;49.806;18.774;2023-02-20T04:20:33;97865.94;;;4.35;68.61
41044;BME280;51680;49.806;18.774;2023-02-20T04:24:02;97860.59;;;4.41;68.48
41044;BME280;51680;49.806;18.774;2023-02-20T04:27:07;97849.38;;;4.42;69.15
41044;BME280;51680;49.806;18.774;2023-02-20T04:30:15;97849.50;;;4.38;68.91
41044;BME280;51680;49.806;18.774;2023-02-20T04:33:18;97843.78;;;4.28;69.46
41044;BME280;51680;49.806;18.774;2023-02-20T04:36:22;97839.94;;;4.14;67.55
41044;BME280;51680;49.806;18.774;2023-02-20T04:39:25;97834.69;;;4.17;69.59
41044;BME280;51680;49.806;18.774;2023-02-20T04:42:29;97841.59;;;4.16;68.99
41044;BME280;51680;49.806;18.774;2023-02-20T04:45:32;97835.63;;;4.14;69.67
41044;BME280;51680;49.806;18.774;2023-02-20T04:48:34;97846.25;;;4.05;69.09
41044;BME280;51680;49.806;18.774;2023-02-20T04:51:37;97831.66;;;4.04;69.81
41044;BME280;51680;49.806;18.774;2023-02-20T04:54:38;97836.13;;;3.99;69.78
41044;BME280;51680;49.806;18.774;2023-02-20T04:57:44;97834.53;;;3.95;69.63
41044;BME280;51680;49.806;18.774;2023-02-20T05:00:46;97822.72;;;3.88;70.02
41044;BME280;51680;49.806;18.774;2023-02-20T05:03:48;97825.22;;;3.90;70.18
41044;BME280;51680;49.806;18.774;2023-02-20T05:06:52;97826.06;;;3.90;69.94
41044;BME280;51680;49.806;18.774;2023-02-20T05:09:54;97812.66;;;3.79;69.22
41044;BME280;51680;49.806;18.774;2023-02-20T05:12:57;97809.19;;;3.80;69.95
41044;BME280;51680;49.806;18.774;2023-02-20T05:15:59;97819.50;;;3.80;69.89
41044;BME280;51680;49.806;18.774;2023-02-20T05:19:01;97818.53;;;3.84;70.02
41044;BME280;51680;49.806;18.774;2023-02-20T05:22:07;97827.09;;;3.85;70.20
41044;BME280;51680;49.806;18.774;2023-02-20T05:25:22;97814.81;;;3.93;69.84
41044;BME280;51680;49.806;18.774;2023-02-20T05:28:25;97784.84;;;3.87;69.32
41044;BME280;51680;49.806;18.774;2023-02-20T05:31:26;97783.78;;;3.94;69.63
41044;BME280;51680;49.806;18.774;2023-02-20T05:34:28;97772.34;;;4.01;69.43
41044;BME280;51680;49.806;18.774;2023-02-20T05:37:30;97782.63;;;4.03;69.54
41044;BME280;51680;49.806;18.774;2023-02-20T05:40:32;97785.94;;;4.06;69.10
41044;BME280;51680;49.806;18.774;2023-02-20T05:43:35;97796.19;;;4.09;69.17
41044;BME280;51680;49.806;18.774;2023-02-20T05:46:38;97799.47;;;4.14;69.76
41044;BME280;51680;49.806;18.774;2023-02-20T05:49:41;97802.94;;;4.13;69.46
41044;BME280;51680;49.806;18.774;2023-02-20T05:52:43;97821.69;;;4.20;69.47
41044;BME280;51680;49.806;18.774;2023-02-20T05:56:03;97813.94;;;4.20;69.86
41044;BME280;51680;49.806;18.774;2023-02-20T05:59:07;97814.69;;;4.23;69.34
41044;BME280;51680;49.806;18.774;2023-02-20T06:02:08;97813.00;;;4.22;69.82
41044;BME280;51680;49.806;18.774;2023-02-20T06:05:10;97815.72;;;4.18;69.76
41044;BME280;51680;49.806;18.774;2023-02-20T06:08:30;97820.13;;;4.14;69.69
41044;BME280;51680;49.806;18.774;2023-02-20T06:11:32;97826.91;;;4.18;69.85
41044;BME280;51680;49.806;18.774;2023-02-20T06:14:36;97831.88;;;4.24;70.22
41044;BME280;51680;49.806;18.774;2023-02-20T06:17:37;97829.03;;;4.32;70.68
41044;BME280;51680;49.806;18.774;2023-02-20T06:20:39;97838.22;;;4.40;70.43
41044;BME280;51680;49.806;18.774;2023-02-20T06:23:42;97825.50;;;4.34;71.43
41044;BME280;51680;49.806;18.774;2023-02-20T06:26:45;97820.47;;;4.31;71.73
41044;BME280;51680;49.806;18.774;2023-02-20T06:29:48;97829.00;;;4.33;71.74
41044;BME280;51680;49.806;18.774;2023-02-20T06:32:50;97831.56;;;4.33;72.30
41044;BME280;51680;49.806;18.774;2023-02-20T06:35:52;97843.22;;;4.46;72.05
41044;BME280;51680;49.806;18.774;2023-02-20T06:38:54;97841.50;;;4.45;71.93
41044;BME280;51680;49.806;18.774;2023-02-20T06:41:55;97839.63;;;4.50;72.20
41044;BME280;51680;49.806;18.774;2023-02-20T06:44:59;97845.25;;;4.63;71.92
41044;BME280;51680;49.806;18.774;2023-02-20T06:48:01;97852.91;;;4.64;72.76
41044;BME280;51680;49.806;18.774;2023-02-20T06:51:03;97843.22;;;4.71;72.47
41044;BME280;51680;49.806;18.774;2023-02-20T06:54:05;97842.88;;;4.81;72.47
41044;BME280;51680;49.806;18.774;2023-02-20T06:57:07;97832.34;;;4.86;72.53
41044;BME280;51680;49.806;18.774;2023-02-20T07:00:12;97841.44;;;4.97;72.59
41044;BME280;51680;49.806;18.774;2023-02-20T07:03:14;97840.97;;;5.11;72.16
41044;BME280;51680;49.806;18.774;2023-02-20T07:06:16;97839.13;;;5.14;71.97
41044;BME280;51680;49.806;18.774;2023-02-20T07:09:18;97831.81;;;5.25;71.93
41044;BME280;51680;49.806;18.774;2023-02-20T07:12:20;97834.31;;;5.51;71.22
41044;BME280;51680;49.806;18.774;2023-02-20T07:15:23;97829.34;;;5.91;70.16
41044;BME280;51680;49.806;18.774;2023-02-20T07:18:25;97834.53;;;6.34;69.26
41044;BME280;51680;49.806;18.774;2023-02-20T07:21:27;97818.75;;;7.00;68.15
41044;BME280;51680;49.806;18.774;2023-02-20T07:24:28;97825.38;;;7.64;66.35
41044;BME280;51680;49.806;18.774;2023-02-20T07:27:31;97819.66;;;7.56;66.00
41044;BME280;51680;49.806;18.774;2023-02-20T07:30:34;97814.91;;;7.66;65.48
41044;BME280;51680;49.806;18.774;2023-02-20T07:33:36;97816.94;;;7.59;65.59
41044;BME280;51680;49.806;18.774;2023-02-20T07:36:37;97822.13;;;7.59;65.43
41044;BME280;51680;49.806;18.774;2023-02-20T07:39:40;97821.63;;;7.51;65.73
41044;BME280;51680;49.806;18.774;2023-02-20T07:42:41;97824.81;;;7.58;66.24
41044;BME280;51680;49.806;18.774;2023-02-20T07:45:57;97813.59;;;7.57;65.84
41044;BME280;51680;49.806;18.774;2023-02-20T07:49:00;97811.75;;;7.59;65.47
41044;BME280;51680;49.806;18.774;2023-02-20T07:52:02;97796.59;;;7.69;65.78
41044;BME280;51680;49.806;18.774;2023-02-20T07:55:04;97786.34;;;7.66;66.09
41044;BME280;51680;49.806;18.774;2023-02-20T07:58:06;97795.31;;;7.77;66.09
41044;BME280;51680;49.806;18.774;2023-02-20T08:01:09;97782.53;;;7.73;65.45
41044;BME280;51680;49.806;18.774;2023-02-20T08:04:11;97775.78;;;7.87;65.55
41044;BME280;51680;49.806;18.774;2023-02-20T08:07:13;97774.91;;;8.05;65.42
41044;BME280;51680;49.806;18.774;2023-02-20T08:10:16;97782.56;;;8.08;64.71
41044;BME280;51680;49.806;18.774;2023-02-20T08:13:18;97779.69;;;7.96;65.40
41044;BME280;51680;49.806;18.774;2023-02-20T08:16:21;97778.44;;;7.86;65.92
41044;BME280;51680;49.806;18.774;2023-02-20T08:19:24;97759.06;;;7.74;66.17
41044;BME280;51680;49.806;18.774;2023-02-20T08:22:25;97764.16;;;7.59;66.85
41044;BME280;51680;49.806;18.774;2023-02-20T08:25:27;97772.09;;;7.56;67.04
41044;BME280;51680;49.806;18.774;2023-02-20T08:28:29;97767.59;;;7.59;67.61
41044;BME280;51680;49.806;18.774;2023-02-20T08:31:32;97766.84;;;7.57;67.77
41044;BME280;51680;49.806;18.774;2023-02-20T08:34:34;97749.53;;;7.56;67.92
41044;BME280;51680;49.806;18.774;2023-02-20T08:37:35;97754.47;;;7.62;67.69
41044;BME280;51680;49.806;18.774;2023-02-20T08:40:37;97770.97;;;7.61;67.83
41044;BME280;51680;49.806;18.774;2023-02-20T08:43:41;97761.06;;;7.69;68.74
41044;BME280;51680;49.806;18.774;2023-02-20T08:46:49;97760.50;;;7.81;67.85
41044;BME280;51680;49.806;18.774;2023-02-20T08:49:52;97747.25;;;8.04;67.72
41044;BME280;51680;49.806;18.774;2023-02-20T08:52:53;97741.94;;;8.41;67.04
41044;BME280;51680;49.806;18.774;2023-02-20T08:55:55;97735.78;;;8.93;66.43
41044;BME280;51680;49.806;18.774;2023-02-20T08:59:16;97722.75;;;10.03;64.62
41044;BME280;51680;49.806;18.774;2023-02-20T09:02:21;97707.91;;;11.06;61.48
41044;BME280;51680;49.806;18.774;2023-02-20T09:05:25;97689.84;;;11.72;60.01
41044;BME280;51680;49.806;18.774;2023-02-20T09:08:27;97690.38;;;12.30;59.22
41044;BME280;51680;49.806;18.774;2023-02-20T09:11:29;97685.56;;;12.36;58.93
41044;BME280;51680;49.806;18.774;2023-02-20T09:14:30;97675.81;;;11.99;59.15
41044;BME280;51680;49.806;18.774;2023-02-20T09:17:53;97690.00;;;11.83;59.25
41044;BME280;51680;49.806;18.774;2023-02-20T09:20:54;97682.88;;;11.44;60.64
41044;BME280;51680;49.806;18.774;2023-02-20T09:23:56;97666.03;;;11.48;60.75
41044;BME280;51680;49.806;18.774;2023-02-20T09:26:58;97652.44;;;11.29;60.64
41044;BME280;51680;49.806;18.774;2023-02-20T09:29:59;97657.47;;;11.46;60.89
41044;BME280;51680;49.806;18.774;2023-02-20T09:33:02;97639.88;;;11.62;60.07
41044;BME280;51680;49.806;18.774;2023-02-20T09:36:05;97641.88;;;11.45;61.30
41044;BME280;51680;49.806;18.774;2023-02-20T09:39:08;97640.72;;;11.08;62.07
41044;BME280;51680;49.806;18.774;2023-02-20T09:42:21;97642.06;;;10.73;61.80
41044;BME280;51680;49.806;18.774;2023-02-20T09:45:26;97659.13;;;10.21;63.69
41044;BME280;51680;49.806;18.774;2023-02-20T09:48:40;97644.44;;;9.89;65.03
41044;BME280;51680;49.806;18.774;2023-02-20T09:51:50;97650.47;;;9.60;65.87
41044;BME280;51680;49.806;18.774;2023-02-20T09:54:58;97644.69;;;9.24;66.65
41044;BME280;51680;49.806;18.774;2023-02-20T09:58:04;97643.25;;;9.19;67.86
41044;BME280;51680;49.806;18.774;2023-02-20T10:01:07;97649.31;;;9.19;68.01
41044;BME280;51680;49.806;18.774;2023-02-20T10:04:15;97636.09;;;9.07;68.95
41044;BME280;51680;49.806;18.774;2023-02-20T10:07:22;97638.03;;;9.03;68.95
41044;BME280;51680;49.806;18.774;2023-02-20T10:10:29;97644.44;;;8.98;69.02
41044;BME280;51680;49.806;18.774;2023-02-20T10:13:43;97633.00;;;9.00;69.24
41044;BME280;51680;49.806;18.774;2023-02-20T10:16:55;97628.09;;;8.94;69.09
41044;BME280;51680;49.806;18.774;2023-02-20T10:20:02;97617.03;;;8.91;69.27
41044;BME280;51680;49.806;18.774;2023-02-20T10:23:15;97609.28;;;8.89;69.45
41044;BME280;51680;49.806;18.774;2023-02-20T10:26:23;97610.22;;;8.88;69.39
41044;BME280;51680;49.806;18.774;2023-02-20T10:29:28;97604.44;;;8.83;69.09
41044;BME280;51680;49.806;18.774;2023-02-20T10:32:39;97581.50;;;8.74;70.02
41044;BME280;51680;49.806;18.774;2023-02-20T10:35:46;97581.38;;;8.60;70.18
41044;BME280;51680;49.806;18.774;2023-02-20T10:38:53;97594.69;;;8.71;70.58
41044;BME280;51680;49.806;18.774;2023-02-20T10:41:58;97586.28;;;8.82;70.59
41044;BME280;51680;49.806;18.774;2023-02-20T10:45:06;97570.44;;;8.86;70.55
41044;BME280;51680;49.806;18.774;2023-02-20T10:48:11;97576.41;;;9.04;70.66
41044;BME280;51680;49.806;18.774;2023-02-20T10:51:18;97564.19;;;9.04;70.95
41044;BME280;51680;49.806;18.774;2023-02-20T10:54:28;97565.97;;;9.04;70.90
41044;BME280;51680;49.806;18.774;2023-02-20T10:57:35;97561.44;;;9.07;70.78
41044;BME280;51680;49.806;18.774;2023-02-20T11:00:39;97547.50;;;9.08;70.88
41044;BME280;51680;49.806;18.774;2023-02-20T11:03:47;97541.59;;;9.20;71.17
41044;BME280;51680;49.806;18.774;2023-02-20T11:06:58;97530.91;;;9.25;71.31
41044;BME280;51680;49.806;18.774;2023-02-20T11:10:02;97509.19;;;9.10;71.58
41044;BME280;51680;49.806;18.774;2023-02-20T11:13:13;97510.53;;;9.17;72.18
41044;BME280;51680;49.806;18.774;2023-02-20T11:16:22;97508.69;;;9.19;71.67
41044;BME280;51680;49.806;18.774;2023-02-20T11:19:30;97497.41;;;9.19;71.90
41044;BME280;51680;49.806;18.774;2023-02-20T11:22:40;97500.38;;;9.13;71.99
41044;BME280;51680;49.806;18.774;2023-02-20T11:25:42;97485.25;;;9.19;71.71
41044;BME280;51680;49.806;18.774;2023-02-20T11:28:43;97466.47;;;9.28;72.03
41044;BME280;51680;49.806;18.774;2023-02-20T11:31:45;97469.34;;;9.24;71.67
41044;BME280;51680;49.806;18.774;2023-02-20T11:38:32;97473.00;;;9.35;71.59
41044;BME280;51680;49.806;18.774;2023-02-20T11:41:36;97477.44;;;9.19;71.74
41044;BME280;51680;49.806;18.774;2023-02-20T11:44:39;97471.28;;;9.20;71.97
41044;BME280;51680;49.806;18.774;2023-02-20T11:47:41;97464.66;;;9.15;72.09
41044;BME280;51680;49.806;18.774;2023-02-20T11:50:44;97444.84;;;9.12;72.27
41044;BME280;51680;49.806;18.774;2023-02-20T11:53:48;97450.06;;;8.97;73.00
41044;BME280;51680;49.806;18.774;2023-02-20T11:57:19;97461.19;;;9.00;72.84
41044;BME280;51680;49.806;18.774;2023-02-20T12:00:23;97428.06;;;9.02;72.47
41044;BME280;51680;49.806;18.774;2023-02-20T12:03:26;97432.91;;;9.08;72.32
41044;BME280;51680;49.806;18.774;2023-02-20T12:06:40;97405.16;;;8.93;73.00
41044;BME280;51680;49.806;18.774;2023-02-20T12:09:45;97371.47;;;8.90;72.47
41044;BME280;51680;49.806;18.774;2023-02-20T12:12:49;97406.75;;;8.96;72.39
41044;BME280;51680;49.806;18.774;2023-02-20T12:15:57;97400.16;;;9.04;72.41
41044;BME280;51680;49.806;18.774;2023-02-20T12:19:27;97399.63;;;9.13;72.37
41044;BME280;51680;49.806;18.774;2023-02-20T12:22:33;97391.38;;;9.21;72.04
41044;BME280;51680;49.806;18.774;2023-02-20T12:25:43;97369.91;;;9.31;72.01
41044;BME280;51680;49.806;18.774;2023-02-20T12:29:00;97358.50;;;9.48;71.71
41044;BME280;51680;49.806;18.774;2023-02-20T12:32:19;97344.75;;;9.46;71.57
41044;BME280;51680;49.806;18.774;2023-02-20T12:35:29;97348.53;;;9.54;71.25
41044;BME280;51680;49.806;18.774;2023-02-20T12:38:39;97349.66;;;9.64;70.71
41044;BME280;51680;49.806;18.774;2023-02-20T12:41:55;97327.22;;;9.62;70.70
41044;BME280;51680;49.806;18.774;2023-02-20T12:45:21;97303.69;;;9.63;70.29
41044;BME280;51680;49.806;18.774;2023-02-20T12:48:35;97312.31;;;9.64;69.94
41044;BME280;51680;49.806;18.774;2023-02-20T12:51:46;97294.75;;;9.81;70.37
41044;BME280;51680;49.806;18.774;2023-02-20T12:54:53;97315.00;;;10.04;69.90
41044;BME280;51680;49.806;18.774;2023-02-20T12:58:09;97314.59;;;10.24;69.33
41044;BME280;51680;49.806;18.774;2023-02-20T13:01:16;97316.19;;;10.27;69.29
41044;BME280;51680;49.806;18.774;2023-02-20T13:04:24;97308.88;;;10.32;68.53
41044;BME280;51680;49.806;18.774;2023-02-20T13:07:32;97310.56;;;10.33;69.05
41044;BME280;51680;49.806;18.774;2023-02-20T13:10:45;97306.00;;;10.22;68.33
41044;BME280;51680;49.806;18.774;2023-02-20T13:13:55;97323.34;;;10.23;69.54
41044;BME280;51680;49.806;18.774;2023-02-20T13:17:11;97319.06;;;10.22;69.33
41044;BME280;51680;49.806;18.774;2023-02-20T13:20:19;97324.72;;;10.29;69.14
41044;BME280;51680;49.806;18.774;2023-02-20T13:23:29;97314.38;;;10.27;69.08
41044;BME280;51680;49.806;18.774;2023-02-20T13:26:46;97314.19;;;10.30;69.11
41044;BME280;51680;49.806;18.774;2023-02-20T13:29:58;97302.22;;;10.40;69.04
41044;BME280;51680;49.806;18.774;2023-02-20T13:33:11;97294.50;;;10.39;68.54
41044;BME280;51680;49.806;18.774;2023-02-20T13:36:36;97269.09;;;10.28;69.17
41044;BME280;51680;49.806;18.774;2023-02-20T13:39:41;97253.47;;;10.41;69.50
41044;BME280;51680;49.806;18.774;2023-02-20T13:42:42;97257.47;;;10.46;69.32
41044;BME280;51680;49.806;18.774;2023-02-20T13:45:46;97243.72;;;10.57;68.91
41044;BME280;51680;49.806;18.774;2023-02-20T13:48:49;97254.00;;;10.46;68.84
41044;BME280;51680;49.806;18.774;2023-02-20T13:51:51;97224.47;;;10.45;68.38
41044;BME280;51680;49.806;18.774;2023-02-20T13:55:15;97217.09;;;10.52;68.81
41044;BME280;51680;49.806;18.774;2023-02-20T13:58:19;97210.50;;;10.59;68.89
41044;BME280;51680;49.806;18.774;2023-02-20T14:01:22;97194.44;;;10.65;68.92
41044;BME280;51680;49.806;18.774;2023-02-20T14:04:23;97201.22;;;10.67;68.79
41044;BME280;51680;49.806;18.774;2023-02-20T14:07:27;97185.88;;;10.75;68.41
41044;BME280;51680;49.806;18.774;2023-02-20T14:10:31;97171.88;;;10.76;68.56
41044;BME280;51680;49.806;18.774;2023-02-20T14:13:35;97174.38;;;10.78;68.60
41044;BME280;51680;49.806;18.774;2023-02-20T14:16:41;97156.44;;;10.86;68.18
41044;BME280;51680;49.806;18.774;2023-02-20T14:19:45;97150.16;;;10.88;68.22
41044;BME280;51680;49.806;18.774;2023-02-20T14:22:48;97136.78;;;10.93;67.67
41044;BME280;51680;49.806;18.774;2023-02-20T14:26:18;97123.41;;;10.97;66.62
41044;BME280;51680;49.806;18.774;2023-02-20T14:29:22;97108.03;;;11.05;67.48
41044;BME280;51680;49.806;18.774;2023-02-20T14:32:25;97105.22;;;11.08;67.04
41044;BME280;51680;49.806;18.774;2023-02-20T14:36:06;97089.75;;;11.05;66.50
41044;BME280;51680;49.806;18.774;2023-02-20T14:39:37;97064.91;;;11.00;65.71
41044;BME280;51680;49.806;18.774;2023-02-20T14:42:43;97076.41;;;10.97;66.58
41044;BME280;51680;49.806;18.774;2023-02-20T14:45:56;97071.69;;;11.02;67.33
41044;BME280;51680;49.806;18.774;2023-02-20T14:49:08;97069.78;;;11.04;66.14
41044;BME280;51680;49.806;18.774;2023-02-20T14:52:18;97083.25;;;11.11;66.92
41044;BME280;51680;49.806;18.774;2023-02-20T14:55:20;97096.72;;;11.17;67.15
41044;BME280;51680;49.806;18.774;2023-02-20T14:58:25;97093.50;;;11.14;66.90
41044;BME280;51680;49.806;18.774;2023-02-20T15:01:35;97085.38;;;11.06;66.38
41044;BME280;51680;49.806;18.774;2023-02-20T15:04:47;97087.97;;;11.06;66.18
41044;BME280;51680;49.806;18.774;2023-02-20T15:07:49;97089.34;;;11.11;67.19
41044;BME280;51680;49.806;18.774;2023-02-20T15:10:53;97088.38;;;11.12;66.62
41044;BME280;51680;49.806;18.774;2023-02-20T15:13:55;97070.16;;;10.87;66.13
41044;BME280;51680;49.806;18.774;2023-02-20T15:17:06;97086.91;;;10.72;66.74
41044;BME280;51680;49.806;18.774;2023-02-20T15:20:17;97087.28;;;10.91;66.20
41044;BME280;51680;49.806;18.774;2023-02-20T15:23:39;97077.06;;;10.88;67.03
41044;BME280;51680;49.806;18.774;2023-02-20T15:26:41;97061.59;;;10.85;66.43
41044;BME280;51680;49.806;18.774;2023-02-20T15:29:45;97067.66;;;10.86;67.03
41044;BME280;51680;49.806;18.774;2023-02-20T15:32:51;97059.22;;;10.82;66.46
41044;BME280;51680;49.806;18.774;2023-02-20T15:35:55;97047.22;;;10.80;67.05
41044;BME280;51680;49.806;18.774;2023-02-20T15:38:58;97055.34;;;10.75;67.58
41044;BME280;51680;49.806;18.774;2023-02-20T15:41:59;97050.38;;;10.72;67.29
41044;BME280;51680;49.806;18.774;2023-02-20T15:45:01;97036.16;;;10.64;67.51
41044;BME280;51680;49.806;18.774;2023-02-20T15:48:04;97033.97;;;10.58;67.88
41044;BME280;51680;49.806;18.774;2023-02-20T15:51:08;97041.72;;;10.59;67.43
41044;BME280;51680;49.806;18.774;2023-02-20T15:54:12;97040.44;;;10.52;67.11
41044;BME280;51680;49.806;18.774;2023-02-20T15:57:15;97038.88;;;10.62;67.03
41044;BME280;51680;49.806;18.774;2023-02-20T16:00:19;97043.69;;;10.68;67.34
41044;BME280;51680;49.806;18.774;2023-02-20T16:03:25;97044.09;;;10.62;67.31
41044;BME280;51680;49.806;18.774;2023-02-20T16:06:29;97036.75;;;10.67;67.42
41044;BME280;51680;49.806;18.774;2023-02-20T16:09:31;97072.91;;;10.73;67.19
41044;BME280;51680;49.806;18.774;2023-02-20T16:12:34;97048.38;;;10.76;67.10
41044;BME280;51680;49.806;18.774;2023-02-20T16:15:35;97039.19;;;10.70;67.01
41044;BME280;51680;49.806;18.774;2023-02-20T16:18:37;97044.38;;;10.83;67.03
41044;BME280;51680;49.806;18.774;2023-02-20T16:21:40;97029.66;;;10.82;66.37
41044;BME280;51680;49.806;18.774;2023-02-20T16:24:43;97049.38;;;10.86;66.37
41044;BME280;51680;49.806;18.774;2023-02-20T16:27:45;97045.50;;;10.91;66.76
41044;BME280;51680;49.806;18.774;2023-02-20T16:30:52;97041.50;;;10.98;65.83